Time;durP1;ratioP1;P1;durP2;ratioP2;P2;SDS_P1;SDS_P2;PMS_P1;PMS_P2;Temp;Humidity;BMP_temperature;BMP_pressure;BME280_temperature;BME280_humidity;BME280_pressure;Samples;Min_cycle;Max_cycle;Signal;HPM_P1;HPM_P2
2023/01/01 00:01:15;;;;;;;5.22;3.50;;;;;;;6.62;100.00;98793.19;5008232;28;20038;-45
2023/01/01 00:03:42;;;;;;;6.45;2.88;;;;;;;6.61;100.00;98786.13;5006274;28;20034;-48
2023/01/01 00:06:11;;;;;;;3.33;2.70;;;;;;;6.61;100.00;98788.88;5006134;28;20100;-45
2023/01/01 00:12:22;;;;;;;4.68;2.72;;;;;;;6.57;100.00;98787.22;5007737;28;20083;-48
2023/01/01 00:14:50;;;;;;;5.25;3.15;;;;;;;6.54;100.00;98798.97;5007090;28;20051;-47
2023/01/01 00:17:18;;;;;;;4.03;1.83;;;;;;;6.55;100.00;98789.53;5007802;28;20111;-45
2023/01/01 00:19:45;;;;;;;3.22;2.53;;;;;;;6.54;100.00;98798.97;5001383;28;20046;-46
2023/01/01 00:22:12;;;;;;;3.47;1.90;;;;;;;6.53;100.00;98806.41;5004653;28;20034;-44
2023/01/01 00:24:59;;;;;;;4.75;2.35;;;;;;;6.53;100.00;98802.84;5007381;28;20050;-49
2023/01/01 00:27:44;;;;;;;4.40;2.30;;;;;;;6.51;100.00;98794.97;5007126;28;20096;-48
2023/01/01 00:30:11;;;;;;;2.70;2.33;;;;;;;6.50;100.00;98800.84;5005086;28;20161;-46
2023/01/01 00:32:38;;;;;;;2.40;1.90;;;;;;;6.45;100.00;98799.19;5004519;28;20049;-45
2023/01/01 00:35:05;;;;;;;2.97;1.70;;;;;;;6.42;100.00;98797.16;4990942;28;20050;-46
2023/01/01 00:37:32;;;;;;;2.67;1.50;;;;;;;6.40;100.00;98799.50;5005669;28;20561;-53
2023/01/01 00:40:32;;;;;;;3.35;2.25;;;;;;;6.37;100.00;98794.72;5005755;28;20060;-49
2023/01/01 00:43:25;;;;;;;2.13;1.60;;;;;;;6.37;100.00;98797.47;5006158;28;20133;-46
2023/01/01 00:45:52;;;;;;;1.13;0.80;;;;;;;6.33;100.00;98793.06;4997773;28;20042;-46
2023/01/01 00:48:20;;;;;;;2.30;1.33;;;;;;;6.30;100.00;98791.81;5000580;28;20046;-46
2023/01/01 00:50:48;;;;;;;2.63;0.75;;;;;;;6.29;100.00;98781.19;5001689;28;20053;-51
2023/01/01 00:53:19;;;;;;;1.73;0.60;;;;;;;6.27;100.00;98783.53;4980486;28;20088;-45
2023/01/01 00:55:47;;;;;;;1.15;0.63;;;;;;;6.26;100.00;98787.41;5007125;28;20088;-45
2023/01/01 00:58:16;;;;;;;0.93;0.50;;;;;;;6.24;100.00;98790.53;5006236;28;20129;-47
2023/01/01 01:00:43;;;;;;;1.55;0.47;;;;;;;6.23;100.00;98786.19;5004517;28;20081;-45
2023/01/01 01:03:26;;;;;;;1.48;0.60;;;;;;;6.20;100.00;98788.88;5005311;28;20064;-47
2023/01/01 01:06:16;;;;;;;1.60;0.63;;;;;;;6.16;100.00;98786.06;5000162;28;20517;-45
2023/01/01 01:08:45;;;;;;;2.30;0.52;;;;;;;6.11;100.00;98794.63;5007719;28;20050;-44
2023/01/01 01:11:23;;;;;;;2.13;0.57;;;;;;;6.06;100.00;98797.66;5007318;28;20184;-45
2023/01/01 01:13:53;;;;;;;1.27;0.38;;;;;;;5.99;100.00;98794.75;5002405;28;20372;-49
2023/01/01 01:16:31;;;;;;;0.60;0.40;;;;;;;5.92;100.00;98797.38;5004092;28;20159;-45
2023/01/01 01:19:01;;;;;;;1.00;0.50;;;;;;;5.86;100.00;98790.56;5000320;28;20373;-44
2023/01/01 01:21:40;;;;;;;0.57;0.32;;;;;;;5.84;100.00;98806.56;5004716;28;20054;-45
2023/01/01 01:24:08;;;;;;;1.38;0.63;;;;;;;5.80;100.00;98808.47;4986054;28;20056;-45
2023/01/01 01:26:38;;;;;;;0.30;0.30;;;;;;;5.74;100.00;98823.63;5004549;28;20080;-46
2023/01/01 01:29:04;;;;;;;0.75;0.40;;;;;;;5.69;100.00;98829.41;4995890;28;21058;-45
2023/01/01 01:32:10;;;;;;;0.90;0.50;;;;;;;5.64;100.00;98835.19;5006250;28;20042;-48
2023/01/01 01:35:14;;;;;;;0.70;0.47;;;;;;;5.60;100.00;98835.09;5002530;28;20049;-45
2023/01/01 01:38:01;;;;;;;0.90;0.32;;;;;;;5.57;100.00;98835.00;5004353;28;20415;-46
2023/01/01 01:40:28;;;;;;;1.75;0.40;;;;;;;5.52;100.00;98834.16;5007228;28;20053;-48
2023/01/01 01:42:55;;;;;;;0.75;0.32;;;;;;;5.51;100.00;98829.00;5007152;28;20073;-46
2023/01/01 01:45:23;;;;;;;0.43;0.35;;;;;;;5.48;100.00;98835.22;5006926;28;20081;-48
2023/01/01 01:47:59;;;;;;;1.98;0.30;;;;;;;5.45;100.00;98842.19;5007497;28;20395;-47
2023/01/01 01:50:26;;;;;;;1.40;0.38;;;;;;;5.42;100.00;98851.16;5003155;28;20053;-46
2023/01/01 01:53:05;;;;;;;1.13;0.50;;;;;;;5.41;100.00;98862.47;4997722;28;20042;-45
2023/01/01 01:55:36;;;;;;;0.57;0.57;;;;;;;5.37;100.00;98873.41;5004153;28;20507;-46
2023/01/01 01:58:06;;;;;;;2.15;0.50;;;;;;;5.36;100.00;98871.78;5009649;28;20122;-46
2023/01/01 02:00:34;;;;;;;1.00;0.25;;;;;;;5.33;100.00;98880.72;5008182;28;20070;-46
2023/01/01 02:03:06;;;;;;;0.50;0.50;;;;;;;5.30;100.00;98886.94;5013471;28;20137;-49
2023/01/01 02:05:34;;;;;;;1.25;0.30;;;;;;;5.31;100.00;98891.28;5007336;28;20053;-45
2023/01/01 02:08:05;;;;;;;0.38;0.38;;;;;;;5.29;100.00;98899.06;5009191;28;20050;-48
2023/01/01 02:10:33;;;;;;;0.50;0.30;;;;;;;5.29;100.00;98899.06;5005904;28;20522;-46
2023/01/01 02:13:00;;;;;;;0.55;0.40;;;;;;;5.29;100.00;98901.00;5005695;28;20125;-46
2023/01/01 02:15:33;;;;;;;0.40;0.32;;;;;;;5.28;100.00;98902.97;5009222;28;20045;-47
2023/01/01 02:18:25;;;;;;;1.02;0.45;;;;;;;5.28;100.00;98919.41;5003375;28;20057;-45
2023/01/01 02:21:11;;;;;;;0.73;0.40;;;;;;;5.28;100.00;98913.13;5005670;28;20133;-45
2023/01/01 02:24:21;;;;;;;0.80;0.40;;;;;;;5.26;100.00;98916.25;5005889;28;20439;-48
2023/01/01 02:27:20;;;;;;;0.40;0.38;;;;;;;5.25;100.00;98920.13;5002454;28;20092;-47
2023/01/01 02:29:59;;;;;;;1.52;0.47;;;;;;;5.26;100.00;98923.66;4955125;28;20380;-50
2023/01/01 02:32:34;;;;;;;1.75;0.50;;;;;;;5.26;100.00;98924.47;5006709;28;20500;-47
2023/01/01 02:38:14;;;;;;;1.35;0.30;;;;;;;5.26;100.00;98935.44;5006591;28;20464;-45
2023/01/01 02:40:47;;;;;;;0.30;0.30;;;;;;;5.24;100.00;98940.47;5007769;28;20129;-45
2023/01/01 02:43:14;;;;;;;1.70;0.35;;;;;;;5.26;100.00;98929.97;5010861;28;20480;-49
2023/01/01 02:46:17;;;;;;;0.40;0.30;;;;;;;5.27;100.00;98934.28;5007311;28;20054;-51
2023/01/01 02:48:43;;;;;;;0.63;0.30;;;;;;;5.28;100.00;98940.56;5009266;28;20403;-53
2023/01/01 02:51:27;;;;;;;0.95;0.35;;;;;;;5.28;100.00;98943.31;5005266;28;20050;-49
2023/01/01 02:54:17;;;;;;;0.30;0.30;;;;;;;5.26;100.00;98938.19;4996870;28;20123;-48
2023/01/01 02:56:55;;;;;;;0.40;0.40;;;;;;;5.25;100.00;98942.06;5008969;28;20041;-45
2023/01/01 03:02:32;;;;;;;1.17;0.30;;;;;;;5.26;100.00;98935.44;4999322;22;20264;-46
2023/01/01 03:09:04;;;;;;;0.73;0.45;;;;;;;5.25;100.00;98947.56;4993701;28;20045;-57
2023/01/01 03:12:07;;;;;;;1.67;0.40;;;;;;;5.24;100.00;98951.44;5001523;28;20504;-46
2023/01/01 03:14:42;;;;;;;1.75;0.50;;;;;;;5.23;100.00;98955.34;4998354;28;20041;-46
2023/01/01 03:17:28;;;;;;;0.57;0.47;;;;;;;5.24;100.00;98954.19;5003732;28;20482;-51
2023/01/01 03:20:00;;;;;;;0.75;0.50;;;;;;;5.24;100.00;98958.91;5001469;28;20133;-54
2023/01/01 03:22:53;;;;;;;1.23;0.50;;;;;;;5.23;100.00;98958.09;4998418;28;20133;-46
2023/01/01 03:25:28;;;;;;;0.47;0.45;;;;;;;5.21;100.00;98952.16;5004040;28;20100;-48
2023/01/01 03:28:01;;;;;;;1.98;0.90;;;;;;;5.20;100.00;98947.81;5009593;28;20056;-46
2023/01/01 03:30:31;;;;;;;0.95;0.47;;;;;;;5.17;100.00;98956.75;5012848;28;20104;-46
2023/01/01 03:33:02;;;;;;;2.83;0.40;;;;;;;5.17;100.00;98944.97;5012124;28;20050;-46
2023/01/01 03:35:32;;;;;;;1.02;0.95;;;;;;;5.17;100.00;98954.00;5010796;28;20049;-46
2023/01/01 03:38:01;;;;;;;0.60;0.60;;;;;;;5.18;100.00;98952.88;5012282;28;20099;-46
2023/01/01 03:40:31;;;;;;;2.00;0.98;;;;;;;5.15;100.00;98959.06;5008792;28;20534;-46
2023/01/01 03:43:20;;;;;;;0.63;0.38;;;;;;;5.12;100.00;98953.47;5005729;28;20448;-49
2023/01/01 03:46:09;;;;;;;1.55;0.40;;;;;;;5.08;100.00;98958.88;5010945;28;20038;-46
2023/01/01 03:48:55;;;;;;;1.48;0.52;;;;;;;5.05;100.00;98954.09;4998541;28;20054;-47
2023/01/01 03:51:47;;;;;;;1.00;0.50;;;;;;;5.01;100.00;98964.16;5012098;28;20176;-46
2023/01/01 03:54:43;;;;;;;0.95;0.60;;;;;;;4.93;100.00;98952.22;5012501;28;20373;-47
2023/01/01 03:57:13;;;;;;;1.58;0.60;;;;;;;4.91;100.00;98950.97;5012322;28;20384;-46
2023/01/01 03:59:49;;;;;;;1.25;1.15;;;;;;;4.88;100.00;98954.41;5010623;28;20125;-46
2023/01/01 04:02:33;;;;;;;1.17;0.88;;;;;;;4.88;100.00;98955.22;5014112;28;20088;-46
2023/01/01 04:12:34;;;;;;;0.90;0.85;;;;;;;4.71;100.00;98952.00;5011930;28;20049;-47
2023/01/01 04:15:26;;;;;;;0.90;0.47;;;;;;;4.62;100.00;98960.38;5009543;28;20488;-46
2023/01/01 04:17:54;;;;;;;2.88;0.50;;;;;;;4.56;100.00;98952.72;5005574;28;20054;-46
2023/01/01 04:20:24;;;;;;;1.80;0.95;;;;;;;4.57;100.00;98954.34;5010033;28;20046;-47
2023/01/01 04:22:54;;;;;;;0.40;0.40;;;;;;;4.60;100.00;98961.88;5012694;28;20133;-46
2023/01/01 04:25:21;;;;;;;2.22;0.73;;;;;;;4.62;100.00;98957.63;5011308;28;20050;-48
2023/01/01 04:27:51;;;;;;;2.47;0.73;;;;;;;4.64;100.00;98965.50;5010473;28;20046;-48
2023/01/01 04:30:18;;;;;;;2.88;0.60;;;;;;;4.63;100.00;98964.69;5011148;28;20056;-53
2023/01/01 04:32:45;;;;;;;3.13;0.68;;;;;;;4.62;100.00;98962.31;5009776;28;20065;-48
2023/01/01 04:35:13;;;;;;;4.15;0.80;;;;;;;4.61;100.00;98968.91;5011749;28;20129;-47
2023/01/01 04:37:42;;;;;;;2.55;0.40;;;;;;;4.61;100.00;98966.19;5010829;28;20042;-47
2023/01/01 04:40:14;;;;;;;1.45;0.85;;;;;;;4.60;100.00;98967.34;5012414;28;20137;-50
2023/01/01 04:49:20;;;;;;;0.85;0.80;;;;;;;4.45;100.00;98990.00;5009985;28;20046;-47
2023/01/01 04:51:47;;;;;;;1.83;0.88;;;;;;;4.41;100.00;99002.81;5011639;28;20080;-48
2023/01/01 04:54:15;;;;;;;1.15;0.47;;;;;;;4.40;100.00;98998.44;5011777;28;20050;-47
2023/01/01 04:56:42;;;;;;;1.23;0.70;;;;;;;4.34;100.00;98994.38;5012214;28;20564;-46
2023/01/01 04:59:09;;;;;;;1.75;0.73;;;;;;;4.30;100.00;99005.22;5009083;28;20577;-45
2023/01/01 05:01:35;;;;;;;1.77;0.80;;;;;;;4.30;100.00;99006.03;5013503;28;20046;-45
2023/01/01 05:04:03;;;;;;;1.83;0.75;;;;;;;4.29;100.00;99004.41;4998299;28;20037;-46
2023/01/01 05:06:30;;;;;;;4.93;1.77;;;;;;;4.30;100.00;99011.50;5009466;28;20082;-45
2023/01/01 05:09:17;;;;;;;4.32;1.05;;;;;;;4.30;100.00;99014.25;5011876;28;20038;-45
2023/01/01 05:11:44;;;;;;;2.38;1.50;;;;;;;4.36;100.00;99014.00;5010570;28;20124;-48
2023/01/01 05:14:11;;;;;;;2.78;1.05;;;;;;;4.36;100.00;99009.31;5013121;28;20136;-45
2023/01/01 05:16:39;;;;;;;3.63;1.60;;;;;;;4.38;100.00;99012.50;5014176;28;20572;-45
2023/01/01 05:19:07;;;;;;;4.78;1.95;;;;;;;4.40;100.00;99021.16;5015085;28;20077;-46
2023/01/01 05:21:38;;;;;;;5.45;1.40;;;;;;;4.44;100.00;99015.81;5013272;28;20477;-45
2023/01/01 05:24:07;;;;;;;10.30;4.20;;;;;;;4.39;100.00;99016.06;5013558;28;20049;-45
2023/01/01 05:26:36;;;;;;;13.98;3.03;;;;;;;4.44;100.00;99026.75;5015049;28;20133;-46
2023/01/01 05:29:54;;;;;;;9.70;2.78;;;;;;;4.46;100.00;99024.47;5011539;28;20092;-45
2023/01/01 05:32:22;;;;;;;8.57;2.17;;;;;;;4.51;100.00;99021.50;5013685;28;20117;-45
2023/01/01 05:34:50;;;;;;;7.07;1.63;;;;;;;4.54;100.00;99018.84;5002687;28;20077;-45
2023/01/01 05:37:17;;;;;;;4.75;1.40;;;;;;;4.59;100.00;99018.63;5012924;28;20050;-46
2023/01/01 05:39:44;;;;;;;4.13;1.83;;;;;;;4.67;100.00;99019.63;5014255;28;20041;-46
2023/01/01 05:42:11;;;;;;;6.10;1.85;;;;;;;4.70;100.00;99013.44;5008388;28;20046;-45
2023/01/01 05:44:38;;;;;;;7.75;1.83;;;;;;;4.76;100.00;99014.78;5012896;28;20045;-46
2023/01/01 05:47:04;;;;;;;4.82;1.42;;;;;;;4.81;100.00;99009.06;5013748;28;20081;-45
2023/01/01 05:49:31;;;;;;;9.35;1.40;;;;;;;4.83;100.00;99004.81;5013135;28;20121;-45
2023/01/01 05:51:58;;;;;;;2.63;1.08;;;;;;;4.88;100.00;99003.75;5013538;28;20104;-45
2023/01/01 05:54:33;;;;;;;1.92;0.90;;;;;;;4.92;100.00;99015.66;5013612;28;20061;-45
2023/01/01 05:56:59;;;;;;;2.10;1.00;;;;;;;4.97;100.00;99015.38;5016581;28;20209;-45
2023/01/01 05:59:28;;;;;;;2.08;0.82;;;;;;;5.03;100.00;99022.19;5013095;28;20042;-45
2023/01/01 06:01:54;;;;;;;5.75;2.22;;;;;;;5.09;100.00;99030.97;5016096;28;20084;-45
2023/01/01 06:04:21;;;;;;;4.07;1.02;;;;;;;5.12;100.00;99024.78;5012594;28;20034;-45
2023/01/01 06:06:50;;;;;;;1.65;1.00;;;;;;;5.14;100.00;99034.25;5013933;28;20061;-45
2023/01/01 06:09:18;;;;;;;4.15;1.67;;;;;;;5.16;100.00;99040.22;5011990;28;20077;-48
2023/01/01 06:11:46;;;;;;;2.15;1.00;;;;;;;5.17;100.00;99039.03;5014794;28;20112;-45
2023/01/01 06:17:54;;;;;;;3.75;1.00;;;;;;;5.22;100.00;99048.97;5008254;28;20038;-45
2023/01/01 06:20:21;;;;;;;3.45;0.80;;;;;;;5.20;100.00;99054.81;5014001;28;20049;-45
2023/01/01 06:22:48;;;;;;;3.25;0.90;;;;;;;5.21;100.00;99053.66;5013116;28;20400;-45
2023/01/01 06:25:15;;;;;;;4.85;1.15;;;;;;;5.23;100.00;99067.84;5012965;28;20484;-46
2023/01/01 06:27:43;;;;;;;3.83;0.90;;;;;;;5.26;100.00;99058.91;5011956;28;20050;-45
2023/01/01 06:30:42;;;;;;;5.60;0.90;;;;;;;5.29;100.00;99062.88;5012869;28;20383;-45
2023/01/01 06:37:19;;;;;;;3.50;1.60;;;;;;;5.31;100.00;99055.09;5003707;28;20225;-45
2023/01/01 06:39:46;;;;;;;9.50;1.25;;;;;;;5.30;100.00;99062.53;5013382;28;20049;-45
2023/01/01 06:42:14;;;;;;;6.28;1.00;;;;;;;5.29;100.00;99052.72;5011240;28;20054;-45
2023/01/01 06:44:40;;;;;;;4.05;1.00;;;;;;;5.26;100.00;99058.91;5012096;28;20053;-46
2023/01/01 06:47:07;;;;;;;1.70;0.90;;;;;;;5.22;100.00;99062.69;5013338;28;20046;-47
2023/01/01 06:49:34;;;;;;;8.50;1.08;;;;;;;5.18;100.00;99067.28;5010667;28;20065;-46
2023/01/01 06:52:01;;;;;;;4.50;1.02;;;;;;;5.14;100.00;99067.19;5013001;28;20104;-45
2023/01/01 06:54:28;;;;;;;10.70;1.10;;;;;;;5.11;100.00;99067.88;5013328;28;20042;-45
2023/01/01 06:56:55;;;;;;;2.22;0.63;;;;;;;5.13;100.00;99070.28;5015486;28;20042;-45
2023/01/01 06:59:22;;;;;;;3.08;1.10;;;;;;;5.11;100.00;99070.63;5012102;28;20050;-46
2023/01/01 07:01:49;;;;;;;4.32;0.93;;;;;;;5.11;100.00;99067.88;5015618;28;20056;-45
2023/01/01 07:04:16;;;;;;;6.72;1.60;;;;;;;5.11;100.00;99078.06;5011554;28;20096;-45
2023/01/01 07:06:42;;;;;;;2.72;0.90;;;;;;;5.10;100.00;99071.78;5011788;28;20507;-49
2023/01/01 07:09:09;;;;;;;4.70;1.00;;;;;;;5.10;100.00;99066.28;5012980;28;20030;-45
2023/01/01 07:11:53;;;;;;;5.70;1.33;;;;;;;5.12;100.00;99064.00;5012029;28;20049;-44
2023/01/01 07:14:20;;;;;;;6.38;1.08;;;;;;;5.11;100.00;99054.16;5009124;28;20066;-44
2023/01/01 07:16:46;;;;;;;6.07;1.50;;;;;;;5.10;100.00;99047.09;5011692;28;20136;-44
2023/01/01 07:19:13;;;;;;;5.57;1.10;;;;;;;5.09;100.00;99061.94;5013298;28;20137;-45
2023/01/01 07:21:53;;;;;;;4.25;1.20;;;;;;;5.07;100.00;99061.50;5011619;28;20399;-44
2023/01/01 07:24:21;;;;;;;2.70;1.10;;;;;;;5.06;100.00;99065.38;5011980;28;20050;-45
2023/01/01 07:27:22;;;;;;;3.28;1.67;;;;;;;5.09;100.00;99075.66;5014347;28;20579;-44
2023/01/01 07:29:49;;;;;;;4.53;1.35;;;;;;;5.12;100.00;99069.47;5011532;28;20042;-44
2023/01/01 07:32:17;;;;;;;5.65;1.33;;;;;;;5.12;100.00;99074.97;5011588;28;20054;-45
2023/01/01 07:34:43;;;;;;;1.75;1.45;;;;;;;5.13;100.00;99065.59;5011984;28;20075;-45
2023/01/01 07:37:27;;;;;;;5.70;1.45;;;;;;;5.17;100.00;99076.66;5011416;28;20051;-46
2023/01/01 07:40:26;;;;;;;6.55;1.55;;;;;;;5.18;100.00;99075.50;5003066;28;20133;-47
2023/01/01 07:46:46;;;;;;;3.75;1.52;;;;;;;5.18;100.00;99081.81;5011813;28;20104;-45
2023/01/01 07:49:13;;;;;;;4.30;1.70;;;;;;;5.18;100.00;99083.75;5012353;28;20402;-45
2023/01/01 07:51:40;;;;;;;2.03;1.10;;;;;;;5.16;100.00;99077.81;5011829;28;20042;-46
2023/01/01 07:54:09;;;;;;;4.50;1.30;;;;;;;5.14;100.00;99080.88;5012627;28;20133;-45
2023/01/01 07:56:37;;;;;;;3.67;2.50;;;;;;;5.10;100.00;99090.19;5012986;28;20045;-46
2023/01/01 07:59:51;;;;;;;4.93;1.10;;;;;;;5.09;100.00;99097.59;5010355;28;20044;-45
2023/01/01 08:02:18;;;;;;;6.95;1.63;;;;;;;5.09;100.00;99092.13;5012886;28;20049;-45
2023/01/01 08:04:45;;;;;;;3.13;1.25;;;;;;;5.10;100.00;99099.22;5010414;28;20099;-44
2023/01/01 08:07:11;;;;;;;5.40;1.00;;;;;;;5.12;100.00;99096.91;5011807;28;20517;-45
2023/01/01 08:09:38;;;;;;;2.58;1.40;;;;;;;5.14;100.00;99094.59;5011340;28;20041;-45
2023/01/01 08:12:06;;;;;;;4.97;1.10;;;;;;;5.16;100.00;99103.31;5010832;28;20048;-45
2023/01/01 08:14:33;;;;;;;2.05;1.15;;;;;;;5.18;100.00;99094.72;5009336;28;20057;-45
2023/01/01 08:17:00;;;;;;;4.90;1.30;;;;;;;5.19;100.00;99091.59;4998722;28;20077;-45
2023/01/01 08:20:02;;;;;;;3.15;0.80;;;;;;;5.20;100.00;99098.72;5010982;28;20133;-45
2023/01/01 08:22:29;;;;;;;4.88;0.90;;;;;;;5.20;100.00;99090.47;5009053;28;20137;-45
2023/01/01 08:25:14;;;;;;;2.05;1.02;;;;;;;5.20;100.00;99090.47;5002410;28;20506;-46
2023/01/01 08:27:40;;;;;;;4.93;1.20;;;;;;;5.18;100.00;99095.53;5010381;28;20132;-45
2023/01/01 08:30:10;;;;;;;7.97;2.15;;;;;;;5.17;100.00;99099.41;5009818;28;20081;-45
2023/01/01 08:32:36;;;;;;;1.42;1.08;;;;;;;5.16;100.00;99103.31;5010500;28;20077;-45
2023/01/01 08:35:05;;;;;;;7.88;1.40;;;;;;;5.17;100.00;99109.56;5013128;28;20045;-44
2023/01/01 08:37:31;;;;;;;5.60;1.30;;;;;;;5.17;100.00;99104.88;5009993;28;20096;-44
2023/01/01 08:39:58;;;;;;;5.95;1.00;;;;;;;5.18;100.00;99103.75;5011430;28;20398;-45
2023/01/01 08:42:25;;;;;;;1.52;0.90;;;;;;;5.19;100.00;99108.06;5009030;28;20125;-47
2023/01/01 08:44:52;;;;;;;3.00;0.95;;;;;;;5.19;100.00;99108.06;5010944;28;20061;-45
2023/01/01 08:47:25;;;;;;;2.60;1.00;;;;;;;5.20;100.00;99117.91;5008995;28;20592;-45
2023/01/01 08:49:52;;;;;;;4.35;1.20;;;;;;;5.20;100.00;99115.16;5012550;28;20076;-44
2023/01/01 08:52:37;;;;;;;2.95;0.90;;;;;;;5.20;100.00;99125.34;5009926;28;20454;-44
2023/01/01 08:55:30;;;;;;;3.08;1.55;;;;;;;5.20;100.00;99131.63;5009834;28;20487;-45
2023/01/01 08:57:57;;;;;;;6.38;2.97;;;;;;;5.23;100.00;99141.91;5013114;28;20128;-45
2023/01/01 09:00:24;;;;;;;5.25;3.22;;;;;;;5.25;100.00;99153.31;5008072;28;20081;-45
2023/01/01 09:02:51;;;;;;;6.40;2.42;;;;;;;5.28;100.00;99146.34;5012637;28;20141;-45
2023/01/01 09:05:18;;;;;;;12.70;3.00;;;;;;;5.27;100.00;99153.75;5009238;28;20080;-46
2023/01/01 09:07:45;;;;;;;5.20;1.73;;;;;;;5.28;100.00;99160.84;5010677;28;20048;-48
2023/01/01 09:10:12;;;;;;;9.35;1.10;;;;;;;5.29;100.00;99156.97;5011486;28;20041;-46
2023/01/01 09:12:39;;;;;;;3.42;0.80;;;;;;;5.33;100.00;99157.88;5010223;28;20137;-46
2023/01/01 09:15:12;;;;;;;4.47;0.73;;;;;;;5.35;100.00;99160.25;5009821;28;20046;-46
2023/01/01 09:17:41;;;;;;;4.63;1.33;;;;;;;5.39;100.00;99158.41;5010857;28;20042;-46
2023/01/01 09:20:08;;;;;;;2.72;0.95;;;;;;;5.42;100.00;99160.47;5009729;28;20080;-46
2023/01/01 09:25:44;;;;;;;8.93;1.50;;;;;;;5.45;100.00;99163.28;5011521;28;20461;-46
2023/01/01 09:29:21;;;;;;;12.48;1.00;;;;;;;5.45;100.00;99166.03;5000944;28;20495;-46
2023/01/01 09:32:08;;;;;;;4.07;0.63;;;;;;;5.41;100.00;99162.41;5009719;28;20402;-46
2023/01/01 09:34:35;;;;;;;6.07;1.20;;;;;;;5.40;100.00;99171.00;5010202;28;20077;-47
2023/01/01 09:37:02;;;;;;;5.50;0.90;;;;;;;5.41;100.00;99176.13;5011825;28;20100;-47
2023/01/01 09:39:29;;;;;;;3.10;0.52;;;;;;;5.48;100.00;99183.78;5009300;28;20132;-47
2023/01/01 09:42:23;;;;;;;10.55;1.67;;;;;;;5.57;100.00;99194.59;5010883;28;20038;-46
2023/01/01 09:45:08;;;;;;;7.53;0.73;;;;;;;5.67;100.00;99177.59;5010392;28;20052;-46
2023/01/01 09:47:53;;;;;;;6.22;0.43;;;;;;;5.73;100.00;99198.97;5010506;28;20046;-46
2023/01/01 09:50:41;;;;;;;1.58;0.75;;;;;;;5.77;100.00;99205.34;5003061;28;20054;-46
2023/01/01 09:54:09;;;;;;;3.03;0.57;;;;;;;5.82;100.00;99212.56;5010753;28;20054;-46
2023/01/01 09:56:39;;;;;;;7.47;0.68;;;;;;;5.85;100.00;99222.88;5010269;28;20108;-46
2023/01/01 09:59:09;;;;;;;2.08;0.70;;;;;;;5.86;100.00;99229.94;5010892;28;20034;-46
2023/01/01 10:01:42;;;;;;;4.88;0.90;;;;;;;5.86;100.00;99232.69;5017228;28;20042;-46
2023/01/01 10:04:35;;;;;;;4.75;1.13;;;;;;;5.87;100.00;99242.56;5005866;28;20042;-46
2023/01/01 10:07:26;;;;;;;2.70;0.70;;;;;;;5.87;100.00;99250.78;5014039;28;20128;-47
2023/01/01 10:10:19;;;;;;;1.47;0.30;;;;;;;5.87;100.00;99254.34;5006850;28;20078;-45
2023/01/01 10:12:58;;;;;;;2.10;0.60;;;;;;;5.88;100.00;99253.16;4997883;28;20081;-46
2023/01/01 10:15:36;;;;;;;6.93;2.95;;;;;;;5.93;100.00;99265.88;4998736;28;20128;-46
2023/01/01 10:18:13;;;;;;;5.78;1.27;;;;;;;5.98;100.00;99265.63;5004251;28;20037;-48
2023/01/01 10:20:46;;;;;;;2.40;1.13;;;;;;;6.06;100.00;99250.94;4999671;28;20042;-46
2023/01/01 10:23:25;;;;;;;2.72;0.47;;;;;;;6.11;100.00;99253.41;5006331;28;20046;-48
2023/01/01 10:26:16;;;;;;;5.18;0.63;;;;;;;6.16;100.00;99260.59;5002969;28;20046;-48
2023/01/01 10:29:00;;;;;;;2.60;0.30;;;;;;;6.17;100.00;99262.97;5002216;28;20394;-48
2023/01/01 10:35:29;;;;;;;4.68;1.50;;;;;;;6.06;100.00;99272.91;4995816;28;20033;-48
2023/01/01 10:38:02;;;;;;;3.38;1.08;;;;;;;6.04;100.00;99275.19;5000240;28;20046;-47
2023/01/01 10:40:29;;;;;;;4.05;1.40;;;;;;;6.04;100.00;99278.75;4997627;28;20070;-48
2023/01/01 10:42:58;;;;;;;1.77;1.10;;;;;;;6.04;100.00;99297.16;5006090;28;20550;-47
2023/01/01 10:46:03;;;;;;;2.40;0.93;;;;;;;6.00;100.00;99299.03;5003350;28;20046;-50
2023/01/01 10:48:31;;;;;;;2.28;1.05;;;;;;;5.97;100.00;99303.28;5001846;28;20137;-46
2023/01/01 10:51:06;;;;;;;2.45;1.40;;;;;;;5.95;100.00;99299.28;5002430;28;20072;-48
2023/01/01 10:53:41;;;;;;;4.13;1.48;;;;;;;5.92;100.00;99310.97;5000610;28;20439;-47
2023/01/01 10:56:20;;;;;;;5.72;1.20;;;;;;;5.93;100.00;99316.09;5002709;28;20133;-47
2023/01/01 10:58:59;;;;;;;3.38;1.23;;;;;;;5.94;100.00;99314.16;4999229;28;20050;-46
2023/01/01 11:01:29;;;;;;;2.70;1.20;;;;;;;5.95;100.00;99313.00;5009850;28;20077;-47
2023/01/01 11:04:25;;;;;;;3.33;1.02;;;;;;;5.94;100.00;99312.22;5004317;28;20472;-46
2023/01/01 11:06:52;;;;;;;3.60;1.70;;;;;;;5.97;100.00;99307.97;5000654;28;20475;-46
2023/01/01 11:09:25;;;;;;;2.92;1.40;;;;;;;6.01;100.00;99315.16;4995974;28;20057;-46
2023/01/01 11:12:00;;;;;;;3.35;1.65;;;;;;;6.05;100.00;99320.75;4998080;28;20424;-47
2023/01/01 11:14:52;;;;;;;2.15;1.65;;;;;;;6.06;100.00;99317.63;5003809;28;20049;-47
2023/01/01 11:17:39;;;;;;;2.97;1.42;;;;;;;6.08;100.00;99337.34;5004228;28;20042;-48
2023/01/01 11:20:18;;;;;;;1.88;1.40;;;;;;;6.06;100.00;99331.38;4995403;28;20139;-47
2023/01/01 11:22:51;;;;;;;2.83;2.03;;;;;;;6.06;100.00;99330.59;5001761;28;20063;-49
2023/01/01 11:25:28;;;;;;;;;;;;;;;6.04;100.00;99341.13;5003364;28;20042;-47
2023/01/01 11:28:15;;;;;;;3.45;2.58;;;;;;;6.03;100.00;99351.34;5003508;28;20016;-47
2023/01/01 11:31:08;;;;;;;4.53;2.42;;;;;;;6.05;100.00;99350.97;4994777;28;20049;-53
2023/01/01 11:33:46;;;;;;;2.70;2.17;;;;;;;6.02;100.00;99351.66;4995079;28;20514;-48
2023/01/01 11:36:21;;;;;;;3.08;2.10;;;;;;;5.99;100.00;99344.13;5005194;28;20471;-47
2023/01/01 11:39:04;;;;;;;5.00;2.65;;;;;;;6.00;100.00;99356.72;4999016;28;20038;-46
2023/01/01 11:41:46;;;;;;;4.15;2.20;;;;;;;5.99;100.00;99358.66;5002846;28;20066;-48
2023/01/01 11:44:26;;;;;;;6.38;2.05;;;;;;;5.97;100.00;99363.72;5004188;28;20041;-48
2023/01/01 11:46:54;;;;;;;3.40;2.35;;;;;;;5.99;100.00;99366.09;5000354;28;20480;-47
2023/01/01 11:49:27;;;;;;;2.75;2.08;;;;;;;5.99;100.00;99375.13;5005588;28;20042;-47
2023/01/01 11:51:58;;;;;;;3.97;2.17;;;;;;;5.99;100.00;99374.34;4999272;28;20413;-48
2023/01/01 11:54:32;;;;;;;3.83;1.73;;;;;;;5.98;100.00;99384.50;4995856;28;20070;-53
2023/01/01 11:57:04;;;;;;;3.50;1.67;;;;;;;5.99;100.00;99382.56;4999302;28;20368;-47
2023/01/01 11:59:44;;;;;;;1.98;1.20;;;;;;;5.99;100.00;99379.81;4997760;28;20053;-47
2023/01/01 12:02:16;;;;;;;3.75;1.58;;;;;;;6.01;100.00;99377.56;5009794;28;20058;-47
2023/01/01 12:04:51;;;;;;;4.32;1.00;;;;;;;6.03;100.00;99387.03;5000810;28;20054;-48
2023/01/01 12:07:31;;;;;;;1.52;1.10;;;;;;;6.03;100.00;99384.31;5002911;28;20464;-47
2023/01/01 12:10:03;;;;;;;4.65;1.10;;;;;;;6.03;100.00;99389.78;4997121;28;20070;-49
2023/01/01 12:12:45;;;;;;;2.28;1.33;;;;;;;6.04;100.00;99393.31;4993387;28;20380;-48
2023/01/01 12:15:26;;;;;;;2.20;1.10;;;;;;;6.04;100.00;99387.81;4997593;28;20077;-47
2023/01/01 12:18:10;;;;;;;6.07;1.42;;;;;;;6.04;100.00;99402.38;5002616;28;20081;-49
2023/01/01 12:20:53;;;;;;;3.28;0.70;;;;;;;6.05;100.00;99392.19;5001805;28;20132;-47
2023/01/01 12:23:21;;;;;;;1.27;0.60;;;;;;;6.04;100.00;99407.84;5001507;28;20506;-52
2023/01/01 12:26:26;;;;;;;0.65;0.47;;;;;;;6.04;100.00;99391.38;5000918;28;20058;-49
2023/01/01 12:28:56;;;;;;;3.33;1.08;;;;;;;6.04;100.00;99402.38;4992847;28;20081;-46
2023/01/01 12:31:45;;;;;;;1.35;0.60;;;;;;;6.06;100.00;99404.78;4993942;28;20495;-47
2023/01/01 12:34:35;;;;;;;1.35;0.57;;;;;;;6.06;100.00;99399.28;4999748;28;20042;-47
2023/01/01 12:37:56;;;;;;;2.58;0.73;;;;;;;6.04;100.00;99407.84;5012900;28;20100;-48
2023/01/01 12:41:19;;;;;;;1.13;0.55;;;;;;;6.05;100.00;99408.66;5010774;28;20052;-47
2023/01/01 12:44:05;;;;;;;5.30;0.80;;;;;;;6.04;100.00;99407.06;5023557;28;20140;-47
2023/01/01 12:47:16;;;;;;;1.00;0.50;;;;;;;6.03;100.00;99414.53;5000726;28;20291;-47
2023/01/01 12:49:57;;;;;;;2.03;0.50;;;;;;;6.00;100.00;99401.47;5010094;28;20049;-46
2023/01/01 12:53:13;;;;;;;2.00;0.50;;;;;;;5.99;100.00;99410.03;5010487;28;20623;-46
2023/01/01 12:59:18;;;;;;;0.95;0.80;;;;;;;5.95;100.00;99420.13;5010855;28;20046;-52
2023/01/01 13:01:46;;;;;;;2.17;1.50;;;;;;;5.96;100.00;99427.22;5014351;28;20048;-49
2023/01/01 13:04:18;;;;;;;1.83;1.73;;;;;;;5.98;100.00;99430.44;4999296;28;20056;-49